Time;durP1;ratioP1;P1;durP2;ratioP2;P2;SDS_P1;SDS_P2;PMS_P1;PMS_P2;Temp;Humidity;BMP_temperature;BMP_pressure;BME280_temperature;BME280_humidity;BME280_pressure;Samples;Min_cycle;Max_cycle;Signal;HPM_P1;HPM_P2
2022/01/13 00:00:09;;;;;;;71.75;32.85;;;4.60;99.90;;;;;;6133549;23;20431;-87
2022/01/13 00:03:26;;;;;;;69.93;32.10;;;4.60;99.90;;;;;;6161108;23;20056;-88
2022/01/13 00:05:57;;;;;;;69.03;31.38;;;4.60;99.90;;;;;;6158275;23;20016;-87
2022/01/13 00:09:05;;;;;;;;;;;;;;;;;;;;;
2022/01/13 00:11:36;;;;;;;71.85;32.50;;;4.60;99.90;;;;;;6110415;23;20399;-88
2022/01/13 00:14:26;;;;;;;67.97;32.08;;;4.50;99.90;;;;;;6133519;23;20032;-87
2022/01/13 00:25:32;;;;;;;;;;;;;;;;;;;;;
2022/01/13 00:28:15;;;;;;;72.03;33.88;;;4.50;99.90;;;;;;6135481;23;20524;-87
2022/01/13 00:30:44;;;;;;;76.30;34.92;;;4.50;99.90;;;;;;6133544;23;20006;-88
2022/01/13 00:33:22;;;;;;;;;;;;;;;;;;;;;
2022/01/13 00:35:59;;;;;;;83.80;36.83;;;4.50;99.90;;;;;;6159800;23;20077;-89
2022/01/13 00:38:51;;;;;;;;;;;;;;;;;;;;;
2022/01/13 00:41:28;;;;;;;;;;;;;;;;;;;;;
2022/01/13 00:44:03;;;;;;;76.30;33.40;;;4.50;99.90;;;;;;6158828;23;20094;-88
2022/01/13 00:47:20;;;;;;;76.60;34.75;;;4.50;99.90;;;;;;6132506;23;20041;-88
2022/01/13 00:49:51;;;;;;;77.07;34.95;;;4.50;99.90;;;;;;6124647;23;20072;-88
2022/01/13 00:52:17;;;;;;;79.22;37.35;;;4.50;99.90;;;;;;6134708;23;19998;-88
2022/01/13 00:54:56;;;;;;;77.80;33.88;;;4.50;99.90;;;;;;6132905;23;20004;-88
2022/01/13 00:57:27;;;;;;;74.20;33.45;;;4.50;99.90;;;;;;6135122;23;20010;-88
2022/01/13 00:59:53;;;;;;;;;;;4.50;99.90;;;;;;6155720;23;19989;-88
2022/01/13 01:02:40;;;;;;;78.30;32.47;;;4.50;99.90;;;;;;6159466;23;19892;-86
2022/01/13 01:05:12;;;;;;;69.45;30.90;;;4.50;99.90;;;;;;6159205;23;20001;-88
2022/01/13 01:07:49;;;;;;;75.65;33.67;;;4.50;99.90;;;;;;6153074;23;20006;-88
2022/01/13 01:10:20;;;;;;;71.20;32.00;;;4.50;99.90;;;;;;6118480;23;20002;-88
2022/01/13 01:12:48;;;;;;;77.90;32.22;;;4.50;99.90;;;;;;6139157;23;20079;-89
2022/01/13 01:15:48;;;;;;;73.20;32.75;;;4.50;99.90;;;;;;6139586;23;20013;-88
2022/01/13 01:18:32;;;;;;;74.70;31.33;;;4.50;99.90;;;;;;6137300;23;20002;-89
2022/01/13 01:29:42;;;;;;;64.80;29.40;;;4.50;99.90;;;;;;6158757;23;20001;-87
2022/01/13 01:32:11;;;;;;;66.63;29.75;;;4.50;99.90;;;;;;6158220;23;20369;-90
2022/01/13 01:37:17;;;;;;;66.80;30.23;;;4.50;99.90;;;;;;6132180;23;20009;-89
2022/01/13 01:39:48;;;;;;;63.90;29.05;;;4.50;99.90;;;;;;6131829;23;19997;-89
2022/01/13 01:42:22;;;;;;;62.35;29.63;;;4.50;99.90;;;;;;6132202;23;20037;-88
2022/01/13 01:44:53;;;;;;;63.58;28.67;;;4.50;99.90;;;;;;6133861;23;20006;-88
2022/01/13 01:47:40;;;;;;;60.10;27.95;;;4.50;99.90;;;;;;6132719;23;20006;-89
2022/01/13 01:50:21;;;;;;;66.80;28.05;;;4.50;99.90;;;;;;6131864;23;20088;-88
2022/01/13 01:52:53;;;;;;;65.20;27.83;;;4.50;99.90;;;;;;6132256;23;20016;-88
2022/01/13 01:55:28;;;;;;;63.83;28.67;;;4.50;99.90;;;;;;6132362;23;20001;-88
2022/01/13 01:57:56;;;;;;;65.30;28.90;;;4.50;99.90;;;;;;6132573;23;20013;-87
2022/01/13 02:00:31;;;;;;;74.15;30.67;;;4.50;99.90;;;;;;6132630;23;20012;-88
2022/01/13 02:02:59;;;;;;;65.72;28.88;;;4.50;99.90;;;;;;6132058;23;20012;-87
2022/01/13 02:05:25;;;;;;;65.00;28.73;;;4.50;99.90;;;;;;6132388;23;20424;-88
2022/01/13 02:08:01;;;;;;;64.65;28.75;;;4.50;99.90;;;;;;6132357;23;20081;-88
2022/01/13 02:10:32;;;;;;;71.32;29.65;;;4.50;99.90;;;;;;6132381;23;20009;-88
2022/01/13 02:13:05;;;;;;;65.68;28.02;;;4.50;99.90;;;;;;6133664;23;20013;-88
2022/01/13 02:15:34;;;;;;;66.30;29.90;;;4.50;99.90;;;;;;6132051;23;20332;-88
2022/01/13 02:18:18;;;;;;;65.15;29.02;;;4.50;99.90;;;;;;6157324;23;20001;-87
2022/01/13 02:20:54;;;;;;;69.13;28.05;;;4.50;99.90;;;;;;6132292;23;20006;-89
2022/01/13 02:23:33;;;;;;;64.93;28.52;;;4.50;99.90;;;;;;6136107;23;20025;-88
2022/01/13 02:26:10;;;;;;;66.97;28.27;;;4.50;99.90;;;;;;6129400;23;19986;-88
2022/01/13 02:28:38;;;;;;;66.35;27.55;;;4.50;99.90;;;;;;6128713;23;20022;-90
2022/01/13 02:31:07;;;;;;;68.45;29.13;;;4.50;99.90;;;;;;6127995;23;20010;-88
2022/01/13 02:33:54;;;;;;;70.70;28.77;;;4.50;99.90;;;;;;6121086;23;20014;-89
2022/01/13 02:36:26;;;;;;;63.85;27.67;;;4.60;99.90;;;;;;6102236;23;20332;-88
2022/01/13 02:38:54;;;;;;;59.92;25.88;;;4.50;99.90;;;;;;6128703;23;20006;-88
2022/01/13 02:41:24;;;;;;;60.08;26.33;;;4.50;99.90;;;;;;6102564;23;20013;-88
2022/01/13 02:43:58;;;;;;;57.65;26.65;;;4.50;99.90;;;;;;6102755;23;20010;-87
2022/01/13 02:49:19;;;;;;;51.97;24.38;;;4.60;99.90;;;;;;6049057;23;20010;-88
2022/01/13 02:51:53;;;;;;;53.05;24.52;;;4.50;99.90;;;;;;6102748;23;20002;-90
2022/01/13 02:54:25;;;;;;;46.05;22.70;;;4.50;99.90;;;;;;6102420;23;20010;-86
2022/01/13 02:56:53;;;;;;;;;;;4.50;99.90;;;;;;6080100;23;20432;-87
2022/01/13 02:59:21;;;;;;;50.42;23.38;;;4.50;99.90;;;;;;6102095;23;19901;-87
2022/01/13 03:01:47;;;;;;;47.50;23.55;;;4.50;99.90;;;;;;6102783;23;20002;-87
2022/01/13 03:04:15;;;;;;;44.78;22.50;;;4.50;99.90;;;;;;6102269;23;20014;-88
2022/01/13 03:06:46;;;;;;;46.95;21.75;;;4.50;99.90;;;;;;6078328;23;20017;-89
2022/01/13 03:09:15;;;;;;;51.30;23.23;;;4.50;99.90;;;;;;6078678;23;20016;-89
2022/01/13 03:11:43;;;;;;;51.15;23.65;;;4.50;99.90;;;;;;6102306;23;19998;-88
2022/01/13 03:14:19;;;;;;;45.28;22.58;;;4.50;99.90;;;;;;6102200;23;20069;-87
2022/01/13 03:16:45;;;;;;;42.67;20.67;;;4.50;99.90;;;;;;6102315;23;20002;-87
2022/01/13 03:19:17;;;;;;;41.13;22.13;;;4.60;99.90;;;;;;6102354;23;20333;-87
2022/01/13 03:21:43;;;;;;;45.97;21.67;;;4.50;99.90;;;;;;6102886;23;20053;-88
2022/01/13 03:24:11;;;;;;;42.58;21.63;;;4.50;99.90;;;;;;6127803;23;20017;-87
2022/01/13 03:26:41;;;;;;;40.17;20.30;;;4.50;99.90;;;;;;6159994;23;20006;-88
2022/01/13 03:32:14;;;;;;;39.17;19.35;;;4.50;99.90;;;;;;6169584;23;20056;-87
2022/01/13 03:34:43;;;;;;;36.75;19.42;;;4.50;99.90;;;;;;6134046;23;20335;-88
2022/01/13 03:37:16;;;;;;;42.65;20.95;;;4.50;99.90;;;;;;6133810;23;20002;-88
2022/01/13 03:39:44;;;;;;;39.22;19.83;;;4.50;99.90;;;;;;6134182;23;20100;-88
2022/01/13 03:42:10;;;;;;;38.22;19.15;;;4.50;99.90;;;;;;6134639;23;20028;-87
2022/01/13 03:44:41;;;;;;;42.83;20.50;;;4.50;99.90;;;;;;6133539;23;20348;-89
2022/01/13 03:47:10;;;;;;;39.83;20.42;;;4.50;99.90;;;;;;6110508;23;20071;-89
2022/01/13 03:49:36;;;;;;;36.47;18.70;;;4.50;99.90;;;;;;6111398;23;20001;-89
2022/01/13 03:52:04;;;;;;;41.25;20.30;;;4.50;99.90;;;;;;6147625;23;20016;-89
2022/01/13 03:55:14;;;;;;;34.22;18.77;;;4.50;99.90;;;;;;6159506;23;20013;-88
2022/01/13 03:58:24;;;;;;;36.58;18.95;;;4.40;99.90;;;;;;6160206;23;19990;-88
2022/01/13 04:01:25;;;;;;;36.78;18.95;;;4.40;99.90;;;;;;6028076;23;20008;-87
2022/01/13 04:04:04;;;;;;;36.75;18.80;;;4.40;99.90;;;;;;6141800;23;20029;-88
2022/01/13 04:06:50;;;;;;;41.67;19.15;;;4.40;99.90;;;;;;6150466;23;20029;-88
2022/01/13 04:09:22;;;;;;;40.00;19.67;;;4.40;99.90;;;;;;6140077;23;20002;-89
2022/01/13 04:11:51;;;;;;;41.22;21.13;;;4.40;99.90;;;;;;6136568;23;20001;-87
2022/01/13 04:14:31;;;;;;;40.42;21.17;;;4.40;99.90;;;;;;6137243;23;20494;-88
2022/01/13 04:16:57;;;;;;;44.42;21.13;;;4.30;99.90;;;;;;6140701;23;20301;-88
2022/01/13 04:19:25;;;;;;;43.28;19.77;;;4.30;99.90;;;;;;6138712;23;20004;-87
2022/01/13 04:21:53;;;;;;;38.72;20.05;;;4.30;99.90;;;;;;6133679;23;20002;-88
2022/01/13 04:24:19;;;;;;;38.28;19.40;;;4.40;99.90;;;;;;6134188;23;20025;-88
2022/01/13 04:26:57;;;;;;;33.80;18.52;;;4.40;99.90;;;;;;6133244;23;20005;-89
2022/01/13 04:29:34;;;;;;;36.85;19.35;;;4.30;99.90;;;;;;6136014;23;20013;-88
2022/01/13 04:32:03;;;;;;;33.80;17.85;;;4.30;99.90;;;;;;6159483;23;20393;-87
2022/01/13 04:37:20;;;;;;;37.38;19.35;;;4.30;99.90;;;;;;6159506;23;20389;-88
2022/01/13 04:40:03;;;;;;;31.95;17.50;;;4.30;99.90;;;;;;6133341;23;20111;-88
2022/01/13 04:42:35;;;;;;;42.33;17.75;;;4.30;99.90;;;;;;6159420;23;20423;-88
2022/01/13 04:45:13;;;;;;;38.08;18.70;;;4.40;99.90;;;;;;6161033;23;20140;-87
2022/01/13 04:47:39;;;;;;;36.17;18.35;;;4.30;99.90;;;;;;6135887;23;20009;-87
2022/01/13 04:50:17;;;;;;;32.67;16.80;;;4.30;99.90;;;;;;6135788;23;19997;-88
2022/01/13 04:52:45;;;;;;;31.40;17.33;;;4.30;99.90;;;;;;6134951;23;20009;-89
2022/01/13 04:55:21;;;;;;;32.05;18.63;;;4.30;99.90;;;;;;6135129;23;20395;-88
2022/01/13 04:57:54;;;;;;;52.05;20.45;;;4.30;99.90;;;;;;6135954;23;20004;-88
2022/01/13 05:00:26;;;;;;;33.60;18.92;;;4.30;99.90;;;;;;6142070;23;20001;-88
2022/01/13 05:02:54;;;;;;;35.25;18.95;;;4.30;99.90;;;;;;6164306;23;20041;-88
2022/01/13 05:05:21;;;;;;;37.10;19.10;;;4.30;99.90;;;;;;6133702;23;20009;-88
2022/01/13 05:07:54;;;;;;;33.30;18.63;;;4.30;99.90;;;;;;6133360;23;20056;-87
2022/01/13 05:10:20;;;;;;;34.30;17.83;;;4.30;99.90;;;;;;6132810;23;20002;-88
2022/01/13 05:12:54;;;;;;;32.42;18.10;;;4.30;99.90;;;;;;6108087;23;20016;-88
2022/01/13 05:15:25;;;;;;;31.95;17.60;;;4.30;99.90;;;;;;6159550;23;20028;-88
2022/01/13 05:18:43;;;;;;;31.35;16.98;;;4.30;99.90;;;;;;6142036;23;20040;-89
2022/01/13 05:21:45;;;;;;;30.55;16.95;;;4.30;99.90;;;;;;6182296;23;19989;-87
2022/01/13 05:24:16;;;;;;;31.95;17.20;;;4.30;99.90;;;;;;6158472;23;20005;-88
2022/01/13 05:26:42;;;;;;;28.48;15.63;;;4.30;99.90;;;;;;6147693;23;20479;-87
2022/01/13 05:29:17;;;;;;;30.27;16.25;;;4.20;99.90;;;;;;6132719;23;20297;-88
2022/01/13 05:31:47;;;;;;;30.05;15.05;;;4.20;99.90;;;;;;6133115;23;20004;-88
2022/01/13 05:34:19;;;;;;;26.70;15.65;;;4.20;99.90;;;;;;6133078;23;20032;-88
2022/01/13 05:36:53;;;;;;;28.33;15.25;;;4.30;99.90;;;;;;6132603;23;20032;-88
2022/01/13 05:39:25;;;;;;;28.15;15.65;;;4.30;99.90;;;;;;6110002;23;20092;-88
2022/01/13 05:41:51;;;;;;;26.30;14.77;;;4.30;99.90;;;;;;6132991;23;20009;-88
2022/01/13 05:44:20;;;;;;;28.15;14.90;;;4.20;99.90;;;;;;6132309;23;20010;-88
2022/01/13 05:46:56;;;;;;;27.92;14.65;;;4.20;99.90;;;;;;6132474;23;20016;-88
2022/01/13 05:49:22;;;;;;;28.70;15.80;;;4.30;99.90;;;;;;6109927;23;20010;-89
2022/01/13 05:51:57;;;;;;;25.77;15.00;;;4.30;99.90;;;;;;6132403;23;20002;-88
2022/01/13 05:54:35;;;;;;;;;;;;;;;;;;;;;
2022/01/13 05:57:09;;;;;;;28.55;14.57;;;4.30;99.90;;;;;;6134609;23;20395;-89
2022/01/13 05:59:37;;;;;;;25.42;14.25;;;4.20;99.90;;;;;;6132918;23;20002;-89
2022/01/13 06:02:18;;;;;;;;;;;;;;;;;;;;;
2022/01/13 06:05:10;;;;;;;25.20;13.75;;;4.20;99.90;;;;;;6135828;23;20085;-90
2022/01/13 06:11:42;;;;;;;25.15;14.20;;;4.20;99.90;;;;;;6114411;23;20006;-90
2022/01/13 06:21:47;;;;;;;24.65;13.32;;;4.10;99.90;;;;;;6108385;23;20012;-92
2022/01/13 06:28:55;;;;;;;;;;;;;;;;;;;;;
2022/01/13 06:41:55;;;;;;;24.60;14.18;;;4.10;99.90;;;;;;6041147;23;20548;-90
2022/01/13 06:45:34;;;;;;;;;;;;;;;;;;;;;
2022/01/13 07:08:22;;;;;;;25.85;13.73;;;4.00;99.90;;;;;;5927704;23;20015;-90
2022/01/13 07:14:09;;;;;;;35.42;14.07;;;4.00;99.90;;;;;;6108321;23;20010;-91
2022/01/13 07:20:16;;;;;;;;;;;;;;;;;;;;;
2022/01/13 07:23:13;;;;;;;23.10;14.13;;;4.00;99.90;;;;;;6039692;23;20555;-92
2022/01/13 07:25:56;;;;;;;;;;;;;;;;;;;;;
2022/01/13 07:28:31;;;;;;;22.85;14.25;;;4.10;99.90;;;;;;6128784;23;20080;-90
2022/01/13 07:34:34;;;;;;;29.90;18.27;;;4.10;99.90;;;;;;6108534;23;20463;-90
2022/01/13 07:37:56;;;;;;;;;;;;;;;;;;;;;
2022/01/13 07:41:01;;;;;;;24.77;14.77;;;4.10;99.90;;;;;;6095755;23;20463;-90
2022/01/13 07:47:30;;;;;;;;;;;;;;;;;;;;;
2022/01/13 07:50:41;;;;;;;;;;;;;;;;;;;;;
2022/01/13 07:57:03;;;;;;;23.35;13.70;;;4.10;99.90;;;;;;6121557;23;20013;-88
2022/01/13 08:16:40;;;;;;;25.15;14.25;;;4.20;99.90;;;;;;6060933;23;19905;-90
2022/01/13 08:30:15;;;;;;;23.27;12.82;;;4.20;99.90;;;;;;5895733;24;20471;-91
2022/01/13 08:49:43;;;;;;;22.20;12.13;;;4.20;99.90;;;;;;5825186;24;20103;-91
2022/01/13 08:56:01;;;;;;;;;;;;;;;;;;;;;
2022/01/13 09:02:30;;;;;;;;;;;;;;;;;;;;;
2022/01/13 09:12:09;;;;;;;;;;;;;;;;;;;;;
2022/01/13 09:21:37;;;;;;;18.13;11.00;;;4.20;99.90;;;;;;6042647;23;20047;-91
2022/01/13 09:31:38;;;;;;;21.45;11.90;;;4.20;99.90;;;;;;5990231;23;20133;-90
2022/01/13 09:34:25;;;;;;;19.52;11.63;;;4.30;99.90;;;;;;6076920;23;20010;-90
2022/01/13 09:37:06;;;;;;;21.60;12.80;;;4.30;99.90;;;;;;6124793;23;19986;-90
2022/01/13 09:39:52;;;;;;;;;;;;;;;;;;;;;
2022/01/13 09:42:30;;;;;;;20.80;12.10;;;4.30;99.90;;;;;;6126759;23;20001;-92
2022/01/13 09:45:06;;;;;;;20.55;12.80;;;4.30;99.90;;;;;;6117587;23;20005;-90
2022/01/13 09:47:36;;;;;;;22.80;12.25;;;4.40;99.90;;;;;;6106608;23;20061;-89
2022/01/13 09:50:18;;;;;;;20.17;12.52;;;4.40;99.90;;;;;;6106559;23;20006;-90
2022/01/13 09:52:50;;;;;;;20.42;12.77;;;4.40;99.90;;;;;;6105033;23;20034;-90
2022/01/13 09:55:21;;;;;;;20.65;12.18;;;4.40;99.90;;;;;;6104771;23;20002;-89
2022/01/13 09:57:52;;;;;;;23.70;12.00;;;4.40;99.90;;;;;;6104768;23;20050;-90
2022/01/13 10:00:26;;;;;;;17.42;10.60;;;4.40;99.90;;;;;;6130751;23;20002;-92
2022/01/13 10:03:02;;;;;;;20.52;12.00;;;4.40;99.90;;;;;;6081460;23;20101;-89
2022/01/13 10:05:38;;;;;;;18.17;11.70;;;4.50;99.90;;;;;;6105348;23;20372;-89
2022/01/13 10:08:16;;;;;;;;;;;;;;;;;;;;;
2022/01/13 10:10:43;;;;;;;17.20;10.63;;;4.50;99.90;;;;;;6130622;23;20025;-89
2022/01/13 10:13:39;;;;;;;;;;;;;;;;;;;;;
2022/01/13 10:16:25;;;;;;;18.77;11.00;;;4.50;99.90;;;;;;6130084;23;20373;-88
2022/01/13 10:19:07;;;;;;;18.63;10.38;;;4.60;99.90;;;;;;6106068;23;20045;-88
2022/01/13 10:22:16;;;;;;;21.83;11.93;;;4.60;99.90;;;;;;6105773;23;20025;-90
2022/01/13 10:24:56;;;;;;;17.80;10.50;;;4.60;99.90;;;;;;6088876;23;20018;-89
2022/01/13 10:27:30;;;;;;;21.48;12.65;;;4.70;99.90;;;;;;6105424;23;20073;-91
2022/01/13 10:30:09;;;;;;;;;;;;;;;;;;;;;
2022/01/13 10:36:19;;;;;;;20.23;12.03;;;4.70;99.90;;;;;;6145944;23;20089;-90
2022/01/13 10:39:16;;;;;;;25.80;13.23;;;4.70;99.90;;;;;;6112122;23;20010;-88
2022/01/13 10:42:12;;;;;;;22.10;12.98;;;4.70;99.90;;;;;;6133650;23;20450;-91
2022/01/13 10:45:08;;;;;;;;;;;;;;;;;;;;;
2022/01/13 10:47:48;;;;;;;23.95;13.70;;;4.70;99.90;;;;;;6136072;23;20399;-91
2022/01/13 10:50:17;;;;;;;22.35;13.27;;;4.70;99.90;;;;;;6133457;23;20001;-92
2022/01/13 10:53:22;;;;;;;23.20;12.98;;;4.70;99.90;;;;;;6133332;23;20005;-90
2022/01/13 10:56:17;;;;;;;23.15;12.93;;;4.70;99.90;;;;;;6133368;23;20024;-90
2022/01/13 10:59:36;;;;;;;26.77;13.85;;;4.80;99.90;;;;;;6136124;23;20001;-93
2022/01/13 11:09:01;;;;;;;;;;;;;;;;;;;;;
2022/01/13 11:11:55;;;;;;;;;;;;;;;;;;;;;
2022/01/13 11:14:46;;;;;;;26.63;13.20;;;4.80;99.90;;;;;;6138259;23;20048;-91
2022/01/13 11:18:11;;;;;;;;;;;;;;;;;;;;;
2022/01/13 11:20:42;;;;;;;24.88;14.43;;;4.80;99.90;;;;;;6157652;23;20412;-89
2022/01/13 11:23:50;;;;;;;;;;;;;;;;;;;;;
2022/01/13 11:26:39;;;;;;;20.85;13.05;;;4.80;99.90;;;;;;6161070;23;20009;-95
2022/01/13 11:32:23;;;;;;;;;;;;;;;;;;;;;
2022/01/13 11:35:55;;;;;;;;;;;;;;;;;;;;;
2022/01/13 11:46:22;;;;;;;;;;;;;;;;;;;;;
2022/01/13 12:03:49;;;;;;;22.23;13.52;;;4.80;99.90;;;;;;5808977;24;20101;-93
2022/01/13 12:13:13;;;;;;;22.42;14.05;;;4.80;99.90;;;;;;5978034;24;20044;-90
2022/01/13 12:15:52;;;;;;;20.05;12.75;;;4.90;99.90;;;;;;5969771;24;20008;-91
2022/01/13 12:19:40;;;;;;;25.13;13.48;;;4.90;99.90;;;;;;6077140;23;20080;-91
2022/01/13 12:25:31;;;;;;;;;;;;;;;;;;;;;
2022/01/13 12:28:09;;;;;;;;;;;;;;;;;;;;;
2022/01/13 12:30:48;;;;;;;22.25;13.60;;;4.90;99.90;;;;;;6165468;23;20021;-92
2022/01/13 12:33:33;;;;;;;21.33;13.55;;;4.90;99.90;;;;;;6158775;23;19990;-90
2022/01/13 12:36:51;;;;;;;21.70;12.70;;;4.90;99.90;;;;;;6184795;23;20017;-92
2022/01/13 12:42:16;;;;;;;19.20;12.60;;;4.90;99.90;;;;;;6148655;23;20428;-90
2022/01/13 12:48:19;;;;;;;;;;;4.80;99.90;;;;;;6007053;23;20022;-91
2022/01/13 12:51:17;;;;;;;25.30;13.98;;;4.90;99.90;;;;;;6047228;23;20320;-90
2022/01/13 12:57:27;;;;;;;;;;;;;;;;;;;;;
2022/01/13 13:00:49;;;;;;;21.67;13.02;;;4.80;99.90;;;;;;6135815;23;20512;-91
2022/01/13 13:12:51;;;;;;;24.83;13.40;;;4.90;99.90;;;;;;6098095;23;20100;-90
2022/01/13 13:15:54;;;;;;;24.75;14.10;;;4.90;99.90;;;;;;6133783;23;20002;-90
2022/01/13 13:18:25;;;;;;;26.38;14.20;;;4.90;99.90;;;;;;6134174;23;20029;-91
2022/01/13 13:21:02;;;;;;;25.85;14.00;;;4.90;99.90;;;;;;6135386;23;20040;-90
2022/01/13 13:24:08;;;;;;;;;;;;;;;;;;;;;
2022/01/13 13:27:00;;;;;;;25.13;14.13;;;4.90;99.90;;;;;;6137703;23;20080;-89
2022/01/13 13:29:33;;;;;;;24.23;14.00;;;4.90;99.90;;;;;;6114969;23;20013;-89
2022/01/13 13:32:20;;;;;;;23.13;13.52;;;4.90;99.90;;;;;;6110198;23;20473;-92
2022/01/13 13:35:25;;;;;;;;;;;;;;;;;;;;;
2022/01/13 13:39:02;;;;;;;27.08;15.30;;;4.90;99.90;;;;;;6151780;23;20021;-91
2022/01/13 13:42:01;;;;;;;;;;;;;;;;;;;;;
2022/01/13 13:44:41;;;;;;;30.08;15.52;;;5.00;99.90;;;;;;6160253;23;20089;-91
2022/01/13 13:47:21;;;;;;;30.77;16.60;;;4.90;99.90;;;;;;6160237;23;20001;-90
2022/01/13 13:50:14;;;;;;;26.23;15.48;;;4.90;99.90;;;;;;6135602;23;20041;-89
2022/01/13 13:52:57;;;;;;;27.55;14.70;;;4.90;99.90;;;;;;6113361;23;20006;-89
2022/01/13 14:09:19;;;;;;;28.20;14.82;;;4.90;99.90;;;;;;5929698;24;20020;-89
2022/01/13 14:12:27;;;;;;;28.73;14.60;;;4.90;99.90;;;;;;5927982;24;20013;-89
2022/01/13 14:15:32;;;;;;;29.50;15.18;;;5.00;99.90;;;;;;5927289;24;20017;-90
2022/01/13 14:28:30;;;;;;;30.67;15.65;;;4.90;99.90;;;;;;6002065;23;20023;-92
2022/01/13 14:42:29;;;;;;;26.98;14.70;;;5.00;99.90;;;;;;5821107;24;20053;-91
2022/01/13 14:55:56;;;;;;;27.08;14.50;;;5.00;99.90;;;;;;5749867;24;20080;-91
2022/01/13 14:58:59;;;;;;;29.13;15.77;;;4.90;99.90;;;;;;5795075;24;20098;-89
2022/01/13 15:02:18;;;;;;;;;;;;;;;;;;;;;
2022/01/13 15:07:55;;;;;;;29.50;16.13;;;5.00;99.90;;;;;;5833033;24;20097;-88
2022/01/13 15:10:26;;;;;;;40.25;16.02;;;4.90;99.90;;;;;;5957448;24;20095;-91
2022/01/13 15:13:03;;;;;;;29.67;16.35;;;4.90;99.90;;;;;;6091536;23;20433;-89
2022/01/13 15:15:43;;;;;;;29.63;16.20;;;4.90;99.90;;;;;;6105417;23;20002;-89
2022/01/13 15:18:44;;;;;;;;;;;;;;;;;;;;;
2022/01/13 15:21:32;;;;;;;28.40;16.08;;;4.90;99.90;;;;;;6109892;23;20086;-88
2022/01/13 15:24:10;;;;;;;33.20;16.40;;;4.90;99.90;;;;;;6122073;23;20029;-90
2022/01/13 15:27:11;;;;;;;;;;;;;;;;;;;;;
2022/01/13 15:30:07;;;;;;;;;;;5.00;99.90;;;;;;6136878;23;20009;-92
2022/01/13 15:33:06;;;;;;;;;;;;;;;;;;;;;
2022/01/13 15:36:25;;;;;;;;;;;;;;;;;;;;;
2022/01/13 15:39:04;;;;;;;27.55;16.38;;;5.00;99.90;;;;;;6159193;23;20033;-93
2022/01/13 15:47:56;;;;;;;;;;;;;;;;;;;;;
2022/01/13 15:51:13;;;;;;;;;;;;;;;;;;;;;
2022/01/13 15:53:44;;;;;;;26.42;15.32;;;5.00;99.90;;;;;;6064187;23;20070;-90
2022/01/13 15:56:51;;;;;;;28.83;16.53;;;5.10;99.90;;;;;;6023707;23;20015;-90
2022/01/13 15:59:18;;;;;;;30.85;16.52;;;5.10;99.90;;;;;;6067861;23;20066;-90
2022/01/13 16:01:58;;;;;;;29.35;16.25;;;5.10;99.90;;;;;;6024460;23;20007;-90
2022/01/13 16:04:29;;;;;;;29.77;15.70;;;5.10;99.90;;;;;;6001343;23;20011;-90
2022/01/13 16:06:56;;;;;;;27.38;15.55;;;5.10;99.90;;;;;;6046263;23;20011;-90
2022/01/13 16:09:21;;;;;;;26.73;15.77;;;5.20;99.90;;;;;;6117953;23;20021;-91
2022/01/13 16:11:55;;;;;;;28.77;15.85;;;5.10;99.90;;;;;;6137328;23;20095;-90
2022/01/13 16:14:41;;;;;;;36.53;18.45;;;5.10;99.90;;;;;;6136109;23;20040;-92
2022/01/13 16:17:07;;;;;;;34.05;18.27;;;5.20;99.90;;;;;;6136131;23;20046;-90
2022/01/13 16:19:35;;;;;;;33.58;17.25;;;5.20;99.90;;;;;;6135602;23;20002;-91
2022/01/13 16:25:40;;;;;;;28.08;15.25;;;5.20;99.90;;;;;;6119420;23;20124;-92
2022/01/13 16:31:22;;;;;;;30.48;15.63;;;5.30;99.90;;;;;;6163564;23;19907;-93
2022/01/13 16:34:18;;;;;;;;;;;;;;;;;;;;;
2022/01/13 16:44:02;;;;;;;;;;;;;;;;;;;;;
2022/01/13 16:50:42;;;;;;;;;;;;;;;;;;;;;
2022/01/13 16:53:43;;;;;;;;;;;;;;;;;;;;;
2022/01/13 17:30:04;;;;;;;36.15;18.48;;;5.40;99.90;;;;;;6162687;23;20004;-91
2022/01/13 17:39:50;;;;;;;;;;;;;;;;;;;;;
2022/01/13 17:49:16;;;;;;;30.38;16.35;;;5.50;99.90;;;;;;5961847;23;20067;-91
2022/01/13 17:53:06;;;;;;;;;;;;;;;;;;;;;
2022/01/13 17:55:35;;;;;;;;;;;;;;;;;;;;;
2022/01/13 18:30:09;;;;;;;;;;;;;;;;;;;;;
2022/01/13 18:36:54;;;;;;;28.08;16.80;;;5.50;99.90;;;;;;5637165;25;20064;-93
2022/01/13 18:50:17;;;;;;;;;;;;;;;;;;;;;
2022/01/13 19:07:12;;;;;;;;;;;;;;;;;;;;;
2022/01/13 20:06:04;;;;;;;27.73;15.88;;;5.50;99.90;;;;;;5694294;24;20032;-94
2022/01/13 20:13:32;;;;;;;;;;;;;;;;;;;;;
2022/01/13 20:51:30;;;;;;;24.13;14.10;;;5.50;99.90;;;;;;5695142;24;20020;-92
2022/01/13 20:54:42;;;;;;;25.65;14.40;;;5.50;99.90;;;;;;5694808;25;20017;-93
2022/01/13 20:58:01;;;;;;;;;;;;;;;;;;;;;
2022/01/13 21:00:50;;;;;;;;;;;;;;;;;;;;;
2022/01/13 21:03:32;;;;;;;;;;;;;;;;;;;;;
2022/01/13 21:06:57;;;;;;;;;;;;;;;;;;;;;
2022/01/13 21:09:59;;;;;;;28.48;16.05;;;5.60;99.90;;;;;;6007144;23;20071;-94
2022/01/13 21:13:01;;;;;;;;;;;;;;;;;;;;;
2022/01/13 21:15:40;;;;;;;27.33;14.80;;;5.50;99.90;;;;;;6130702;23;20033;-94
2022/01/13 21:18:59;;;;;;;28.08;16.05;;;5.50;99.90;;;;;;6129198;23;20045;-93
2022/01/13 21:22:02;;;;;;;;;;;;;;;;;;;;;
2022/01/13 21:24:54;;;;;;;29.00;14.95;;;5.50;99.90;;;;;;6131297;23;20013;-92
2022/01/13 21:27:41;;;;;;;30.17;16.13;;;5.50;99.90;;;;;;6091287;23;20006;-92
2022/01/13 21:30:54;;;;;;;;;;;;;;;;;;;;;
2022/01/13 21:33:44;;;;;;;27.73;15.65;;;5.50;99.90;;;;;;6120107;23;20054;-92
2022/01/13 21:43:59;;;;;;;34.05;17.35;;;5.50;99.90;;;;;;6061454;23;20050;-94
2022/01/13 21:46:32;;;;;;;29.63;16.38;;;5.60;99.90;;;;;;6069951;23;20015;-92
2022/01/13 21:49:30;;;;;;;;;;;;;;;;;;;;;
2022/01/13 22:02:25;;;;;;;;;;;;;;;;;;;;;
2022/01/13 22:05:25;;;;;;;;;;;;;;;;;;;;;
2022/01/13 22:18:11;;;;;;;;;;;;;;;;;;;;;
2022/01/13 22:24:10;;;;;;;28.20;16.13;;;5.50;99.90;;;;;;5986322;23;20064;-92
2022/01/13 22:27:14;;;;;;;;;;;;;;;;;;;;;
2022/01/13 22:33:25;;;;;;;;;;;;;;;;;;;;;
2022/01/13 22:46:54;;;;;;;24.60;13.75;;;5.40;99.90;;;;;;6162580;23;20026;-94
2022/01/13 22:50:04;;;;;;;;;;;;;;;;;;;;;
2022/01/13 22:53:01;;;;;;;;;;;;;;;;;;;;;
2022/01/13 22:56:06;;;;;;;;;;;;;;;;;;;;;
2022/01/13 23:02:46;;;;;;;27.50;15.77;;;5.40;99.90;;;;;;6092114;23;20010;-94
2022/01/13 23:05:57;;;;;;;;;;;;;;;;;;;;;
2022/01/13 23:12:31;;;;;;;;;;;;;;;;;;;;;
2022/01/13 23:28:04;;;;;;;;;;;;;;;;;;;;;
2022/01/13 23:33:57;;;;;;;;;;;;;;;;;;;;;
2022/01/13 23:37:16;;;;;;;;;;;;;;;;;;;;;
2022/01/13 23:40:38;;;;;;;;;;;;;;;;;;;;;
2022/01/13 23:43:50;;;;;;;34.40;17.70;;;5.30;99.90;;;;;;6152137;23;20097;-95
2022/01/13 23:49:19;;;;;;;31.83;17.35;;;5.20;99.90;;;;;;6161509;23;20012;-93
2022/01/13 23:51:49;;;;;;;33.58;18.17;;;5.30;99.90;;;;;;6133446;23;20060;-92
2022/01/13 23:54:46;;;;;;;30.27;17.80;;;5.30;99.90;;;;;;6135805;23;20016;-93
2022/01/13 23:57:47;;;;;;;;;;;;;;;;;;;;;
